sensor_id;sensor_type;location;lat;lon;timestamp;P1;durP1;ratioP1;P2;durP2;ratioP2
55114;SDS011;41010;53.252;5.786;2022-11-15T00:01:27;26.75;;;17.55;;
55114;SDS011;41010;53.252;5.786;2022-11-15T00:03:54;27.33;;;18.00;;
55114;SDS011;41010;53.252;5.786;2022-11-15T00:06:21;25.88;;;17.25;;
55114;SDS011;41010;53.252;5.786;2022-11-15T00:08:49;28.48;;;17.85;;
55114;SDS011;41010;53.252;5.786;2022-11-15T00:11:17;26.77;;;16.23;;
55114;SDS011;41010;53.252;5.786;2022-11-15T00:13:44;31.20;;;17.80;;
55114;SDS011;41010;53.252;5.786;2022-11-15T00:16:12;27.88;;;16.38;;
55114;SDS011;41010;53.252;5.786;2022-11-15T00:18:39;27.15;;;17.55;;
55114;SDS011;41010;53.252;5.786;2022-11-15T00:21:09;29.60;;;17.67;;
55114;SDS011;41010;53.252;5.786;2022-11-15T00:23:37;27.25;;;17.33;;
55114;SDS011;41010;53.252;5.786;2022-11-15T00:26:04;28.65;;;17.77;;
55114;SDS011;41010;53.252;5.786;2022-11-15T00:28:33;28.52;;;17.92;;
55114;SDS011;41010;53.252;5.786;2022-11-15T00:31:00;26.63;;;17.10;;
55114;SDS011;41010;53.252;5.786;2022-11-15T00:33:28;26.02;;;17.35;;
55114;SDS011;41010;53.252;5.786;2022-11-15T00:35:59;25.17;;;15.73;;
55114;SDS011;41010;53.252;5.786;2022-11-15T00:38:30;25.83;;;16.38;;
55114;SDS011;41010;53.252;5.786;2022-11-15T00:40:57;28.92;;;17.23;;
55114;SDS011;41010;53.252;5.786;2022-11-15T00:43:24;30.95;;;17.45;;
55114;SDS011;41010;53.252;5.786;2022-11-15T00:45:53;24.00;;;16.38;;
55114;SDS011;41010;53.252;5.786;2022-11-15T00:48:20;25.33;;;15.93;;
55114;SDS011;41010;53.252;5.786;2022-11-15T00:50:48;26.08;;;17.25;;
55114;SDS011;41010;53.252;5.786;2022-11-15T00:53:16;27.23;;;16.38;;
55114;SDS011;41010;53.252;5.786;2022-11-15T00:55:44;26.20;;;16.95;;
55114;SDS011;41010;53.252;5.786;2022-11-15T00:58:11;24.63;;;15.32;;
55114;SDS011;41010;53.252;5.786;2022-11-15T01:00:38;25.25;;;16.55;;
55114;SDS011;41010;53.252;5.786;2022-11-15T01:03:07;25.80;;;17.08;;
55114;SDS011;41010;53.252;5.786;2022-11-15T01:05:36;34.25;;;18.90;;
55114;SDS011;41010;53.252;5.786;2022-11-15T01:08:03;30.92;;;17.63;;
55114;SDS011;41010;53.252;5.786;2022-11-15T01:10:31;28.48;;;17.20;;
55114;SDS011;41010;53.252;5.786;2022-11-15T01:12:58;26.10;;;16.90;;
55114;SDS011;41010;53.252;5.786;2022-11-15T01:15:25;28.73;;;17.50;;
55114;SDS011;41010;53.252;5.786;2022-11-15T01:17:52;26.75;;;18.13;;
55114;SDS011;41010;53.252;5.786;2022-11-15T01:20:21;25.65;;;17.27;;
55114;SDS011;41010;53.252;5.786;2022-11-15T01:22:48;26.77;;;16.35;;
55114;SDS011;41010;53.252;5.786;2022-11-15T01:25:15;29.02;;;17.40;;
55114;SDS011;41010;53.252;5.786;2022-11-15T01:27:43;28.38;;;16.85;;
55114;SDS011;41010;53.252;5.786;2022-11-15T01:30:10;30.17;;;17.90;;
55114;SDS011;41010;53.252;5.786;2022-11-15T01:32:37;28.33;;;18.33;;
55114;SDS011;41010;53.252;5.786;2022-11-15T01:35:05;27.27;;;17.13;;
55114;SDS011;41010;53.252;5.786;2022-11-15T01:37:33;29.13;;;17.65;;
55114;SDS011;41010;53.252;5.786;2022-11-15T01:40:01;29.33;;;17.35;;
55114;SDS011;41010;53.252;5.786;2022-11-15T01:42:28;28.17;;;17.38;;
55114;SDS011;41010;53.252;5.786;2022-11-15T01:44:55;31.40;;;17.52;;
55114;SDS011;41010;53.252;5.786;2022-11-15T01:47:23;28.45;;;18.83;;
55114;SDS011;41010;53.252;5.786;2022-11-15T01:49:52;32.00;;;19.58;;
55114;SDS011;41010;53.252;5.786;2022-11-15T01:52:22;31.70;;;19.45;;
55114;SDS011;41010;53.252;5.786;2022-11-15T01:54:53;32.60;;;20.20;;
55114;SDS011;41010;53.252;5.786;2022-11-15T01:57:20;37.05;;;20.85;;
55114;SDS011;41010;53.252;5.786;2022-11-15T01:59:47;33.50;;;20.40;;
55114;SDS011;41010;53.252;5.786;2022-11-15T02:02:15;36.20;;;20.25;;
55114;SDS011;41010;53.252;5.786;2022-11-15T02:04:43;36.35;;;22.33;;
55114;SDS011;41010;53.252;5.786;2022-11-15T02:07:10;37.92;;;22.63;;
55114;SDS011;41010;53.252;5.786;2022-11-15T02:09:39;37.67;;;22.08;;
55114;SDS011;41010;53.252;5.786;2022-11-15T02:12:08;37.65;;;23.10;;
55114;SDS011;41010;53.252;5.786;2022-11-15T02:14:37;36.90;;;22.50;;
55114;SDS011;41010;53.252;5.786;2022-11-15T02:17:07;38.80;;;22.05;;
55114;SDS011;41010;53.252;5.786;2022-11-15T02:19:49;38.65;;;22.95;;
55114;SDS011;41010;53.252;5.786;2022-11-15T02:22:22;39.72;;;22.45;;
55114;SDS011;41010;53.252;5.786;2022-11-15T02:28:02;36.85;;;21.38;;
55114;SDS011;41010;53.252;5.786;2022-11-15T02:30:37;33.53;;;20.23;;
55114;SDS011;41010;53.252;5.786;2022-11-15T02:33:08;44.20;;;23.48;;
55114;SDS011;41010;53.252;5.786;2022-11-15T02:35:39;38.25;;;21.27;;
55114;SDS011;41010;53.252;5.786;2022-11-15T02:38:12;38.60;;;22.48;;
55114;SDS011;41010;53.252;5.786;2022-11-15T02:40:44;41.65;;;22.50;;
55114;SDS011;41010;53.252;5.786;2022-11-15T02:43:13;41.78;;;21.38;;
55114;SDS011;41010;53.252;5.786;2022-11-15T02:46:03;34.75;;;19.55;;
55114;SDS011;41010;53.252;5.786;2022-11-15T02:48:32;38.35;;;21.58;;
55114;SDS011;41010;53.252;5.786;2022-11-15T02:51:00;39.05;;;21.08;;
55114;SDS011;41010;53.252;5.786;2022-11-15T02:53:28;36.38;;;20.55;;
55114;SDS011;41010;53.252;5.786;2022-11-15T02:55:55;36.90;;;20.90;;
55114;SDS011;41010;53.252;5.786;2022-11-15T02:58:37;37.45;;;20.80;;
55114;SDS011;41010;53.252;5.786;2022-11-15T03:01:11;38.10;;;20.70;;
55114;SDS011;41010;53.252;5.786;2022-11-15T03:03:46;39.50;;;21.30;;
55114;SDS011;41010;53.252;5.786;2022-11-15T03:06:20;42.38;;;21.92;;
55114;SDS011;41010;53.252;5.786;2022-11-15T03:08:53;42.53;;;21.30;;
55114;SDS011;41010;53.252;5.786;2022-11-15T03:11:24;61.10;;;23.67;;
55114;SDS011;41010;53.252;5.786;2022-11-15T03:13:53;46.80;;;24.20;;
55114;SDS011;41010;53.252;5.786;2022-11-15T03:16:26;44.80;;;23.20;;
55114;SDS011;41010;53.252;5.786;2022-11-15T03:18:57;47.88;;;24.00;;
55114;SDS011;41010;53.252;5.786;2022-11-15T03:21:26;51.20;;;24.13;;
55114;SDS011;41010;53.252;5.786;2022-11-15T03:23:55;48.38;;;22.95;;
55114;SDS011;41010;53.252;5.786;2022-11-15T03:26:25;48.15;;;24.13;;
55114;SDS011;41010;53.252;5.786;2022-11-15T03:28:53;55.78;;;25.08;;
55114;SDS011;41010;53.252;5.786;2022-11-15T03:31:21;53.15;;;26.13;;
55114;SDS011;41010;53.252;5.786;2022-11-15T03:34:12;53.03;;;24.00;;
55114;SDS011;41010;53.252;5.786;2022-11-15T03:36:42;54.75;;;25.80;;
55114;SDS011;41010;53.252;5.786;2022-11-15T03:39:10;55.03;;;26.20;;
55114;SDS011;41010;53.252;5.786;2022-11-15T03:41:40;56.15;;;26.13;;
55114;SDS011;41010;53.252;5.786;2022-11-15T03:44:10;65.95;;;25.80;;
55114;SDS011;41010;53.252;5.786;2022-11-15T03:46:39;67.05;;;27.80;;
55114;SDS011;41010;53.252;5.786;2022-11-15T03:49:11;72.90;;;27.80;;
55114;SDS011;41010;53.252;5.786;2022-11-15T03:51:40;81.63;;;30.63;;
55114;SDS011;41010;53.252;5.786;2022-11-15T03:54:07;71.22;;;28.95;;
55114;SDS011;41010;53.252;5.786;2022-11-15T03:56:34;79.85;;;28.20;;
55114;SDS011;41010;53.252;5.786;2022-11-15T03:59:01;75.20;;;29.25;;
55114;SDS011;41010;53.252;5.786;2022-11-15T04:01:29;75.05;;;29.00;;
55114;SDS011;41010;53.252;5.786;2022-11-15T04:03:56;75.28;;;29.25;;
55114;SDS011;41010;53.252;5.786;2022-11-15T04:06:24;86.38;;;30.05;;
55114;SDS011;41010;53.252;5.786;2022-11-15T04:08:52;84.40;;;30.05;;
55114;SDS011;41010;53.252;5.786;2022-11-15T04:11:19;84.20;;;30.73;;
55114;SDS011;41010;53.252;5.786;2022-11-15T04:13:46;78.70;;;29.10;;
55114;SDS011;41010;53.252;5.786;2022-11-15T04:16:13;83.70;;;30.13;;
55114;SDS011;41010;53.252;5.786;2022-11-15T04:18:41;84.95;;;29.77;;
55114;SDS011;41010;53.252;5.786;2022-11-15T04:21:08;90.03;;;30.77;;
55114;SDS011;41010;53.252;5.786;2022-11-15T04:23:54;98.60;;;31.88;;
55114;SDS011;41010;53.252;5.786;2022-11-15T04:26:40;79.80;;;29.05;;
55114;SDS011;41010;53.252;5.786;2022-11-15T04:29:07;82.03;;;29.92;;
55114;SDS011;41010;53.252;5.786;2022-11-15T04:31:52;83.90;;;28.88;;
55114;SDS011;41010;53.252;5.786;2022-11-15T04:34:19;88.13;;;30.73;;
55114;SDS011;41010;53.252;5.786;2022-11-15T04:36:47;89.05;;;30.83;;
55114;SDS011;41010;53.252;5.786;2022-11-15T04:39:33;87.90;;;29.52;;
55114;SDS011;41010;53.252;5.786;2022-11-15T04:42:00;83.28;;;29.20;;
55114;SDS011;41010;53.252;5.786;2022-11-15T04:44:27;82.90;;;28.35;;
55114;SDS011;41010;53.252;5.786;2022-11-15T04:46:55;78.40;;;28.90;;
55114;SDS011;41010;53.252;5.786;2022-11-15T04:49:22;74.10;;;28.30;;
55114;SDS011;41010;53.252;5.786;2022-11-15T04:51:49;81.47;;;29.67;;
55114;SDS011;41010;53.252;5.786;2022-11-15T04:54:16;75.70;;;28.15;;
55114;SDS011;41010;53.252;5.786;2022-11-15T04:56:45;63.30;;;26.00;;
55114;SDS011;41010;53.252;5.786;2022-11-15T04:59:12;64.82;;;25.45;;
55114;SDS011;41010;53.252;5.786;2022-11-15T05:01:39;63.28;;;25.83;;
55114;SDS011;41010;53.252;5.786;2022-11-15T05:04:07;65.53;;;25.65;;
55114;SDS011;41010;53.252;5.786;2022-11-15T05:06:46;70.28;;;25.45;;
55114;SDS011;41010;53.252;5.786;2022-11-15T05:09:13;70.20;;;25.52;;
55114;SDS011;41010;53.252;5.786;2022-11-15T05:11:40;76.68;;;27.48;;
55114;SDS011;41010;53.252;5.786;2022-11-15T05:14:09;75.22;;;28.05;;
55114;SDS011;41010;53.252;5.786;2022-11-15T05:16:37;78.20;;;27.73;;
55114;SDS011;41010;53.252;5.786;2022-11-15T05:19:04;90.07;;;31.02;;
55114;SDS011;41010;53.252;5.786;2022-11-15T05:21:32;74.70;;;28.58;;
55114;SDS011;41010;53.252;5.786;2022-11-15T05:23:59;83.00;;;29.20;;
55114;SDS011;41010;53.252;5.786;2022-11-15T05:26:27;87.88;;;30.10;;
55114;SDS011;41010;53.252;5.786;2022-11-15T05:28:54;93.55;;;30.50;;
55114;SDS011;41010;53.252;5.786;2022-11-15T05:31:23;88.03;;;29.20;;
55114;SDS011;41010;53.252;5.786;2022-11-15T05:33:51;106.18;;;32.13;;
55114;SDS011;41010;53.252;5.786;2022-11-15T05:36:21;106.68;;;31.83;;
55114;SDS011;41010;53.252;5.786;2022-11-15T05:38:51;98.55;;;31.85;;
55114;SDS011;41010;53.252;5.786;2022-11-15T05:41:19;110.60;;;33.20;;
55114;SDS011;41010;53.252;5.786;2022-11-15T05:43:47;130.05;;;35.88;;
55114;SDS011;41010;53.252;5.786;2022-11-15T05:46:15;117.15;;;36.22;;
55114;SDS011;41010;53.252;5.786;2022-11-15T05:48:45;111.00;;;35.28;;
55114;SDS011;41010;53.252;5.786;2022-11-15T05:51:13;128.20;;;39.70;;
55114;SDS011;41010;53.252;5.786;2022-11-15T05:53:42;151.48;;;39.67;;
55114;SDS011;41010;53.252;5.786;2022-11-15T05:56:09;131.98;;;39.17;;
55114;SDS011;41010;53.252;5.786;2022-11-15T05:58:37;145.60;;;39.95;;
55114;SDS011;41010;53.252;5.786;2022-11-15T06:01:04;129.38;;;39.63;;
55114;SDS011;41010;53.252;5.786;2022-11-15T06:03:31;129.25;;;37.63;;
55114;SDS011;41010;53.252;5.786;2022-11-15T06:06:00;129.48;;;37.95;;
55114;SDS011;41010;53.252;5.786;2022-11-15T06:08:27;165.00;;;42.85;;
55114;SDS011;41010;53.252;5.786;2022-11-15T06:10:55;132.90;;;40.75;;
55114;SDS011;41010;53.252;5.786;2022-11-15T06:13:22;142.23;;;40.47;;
55114;SDS011;41010;53.252;5.786;2022-11-15T06:15:49;130.90;;;39.92;;
55114;SDS011;41010;53.252;5.786;2022-11-15T06:18:16;138.25;;;42.63;;
55114;SDS011;41010;53.252;5.786;2022-11-15T06:20:43;137.05;;;41.33;;
55114;SDS011;41010;53.252;5.786;2022-11-15T06:23:12;123.32;;;39.38;;
55114;SDS011;41010;53.252;5.786;2022-11-15T06:25:39;130.85;;;41.08;;
55114;SDS011;41010;53.252;5.786;2022-11-15T06:28:06;120.25;;;40.97;;
55114;SDS011;41010;53.252;5.786;2022-11-15T06:30:34;122.75;;;40.90;;
55114;SDS011;41010;53.252;5.786;2022-11-15T06:33:01;121.60;;;41.70;;
55114;SDS011;41010;53.252;5.786;2022-11-15T06:35:29;132.90;;;43.22;;
55114;SDS011;41010;53.252;5.786;2022-11-15T06:38:01;126.97;;;41.90;;
55114;SDS011;41010;53.252;5.786;2022-11-15T06:40:30;127.72;;;40.38;;
55114;SDS011;41010;53.252;5.786;2022-11-15T06:42:57;126.53;;;41.28;;
55114;SDS011;41010;53.252;5.786;2022-11-15T06:45:25;134.63;;;43.28;;
55114;SDS011;41010;53.252;5.786;2022-11-15T06:47:52;134.82;;;43.67;;
55114;SDS011;41010;53.252;5.786;2022-11-15T06:50:19;130.65;;;44.13;;
55114;SDS011;41010;53.252;5.786;2022-11-15T06:52:47;140.93;;;43.65;;
55114;SDS011;41010;53.252;5.786;2022-11-15T06:55:14;142.68;;;44.78;;
55114;SDS011;41010;53.252;5.786;2022-11-15T06:57:47;145.23;;;45.42;;
55114;SDS011;41010;53.252;5.786;2022-11-15T07:00:15;137.52;;;45.78;;
55114;SDS011;41010;53.252;5.786;2022-11-15T07:02:42;130.77;;;44.72;;
55114;SDS011;41010;53.252;5.786;2022-11-15T07:05:10;134.80;;;44.70;;
55114;SDS011;41010;53.252;5.786;2022-11-15T07:07:37;132.88;;;44.88;;
55114;SDS011;41010;53.252;5.786;2022-11-15T07:10:05;141.20;;;45.42;;
55114;SDS011;41010;53.252;5.786;2022-11-15T07:12:32;154.45;;;46.78;;
55114;SDS011;41010;53.252;5.786;2022-11-15T07:15:01;136.98;;;46.58;;
55114;SDS011;41010;53.252;5.786;2022-11-15T07:17:28;146.20;;;46.40;;
55114;SDS011;41010;53.252;5.786;2022-11-15T07:19:55;155.70;;;48.75;;
55114;SDS011;41010;53.252;5.786;2022-11-15T07:22:22;156.10;;;48.85;;
55114;SDS011;41010;53.252;5.786;2022-11-15T07:24:50;172.13;;;50.10;;
55114;SDS011;41010;53.252;5.786;2022-11-15T07:27:17;163.75;;;50.03;;
55114;SDS011;41010;53.252;5.786;2022-11-15T07:29:44;161.10;;;49.90;;
55114;SDS011;41010;53.252;5.786;2022-11-15T07:32:13;154.27;;;49.58;;
55114;SDS011;41010;53.252;5.786;2022-11-15T07:34:40;145.05;;;50.25;;
55114;SDS011;41010;53.252;5.786;2022-11-15T07:37:07;142.15;;;49.42;;
55114;SDS011;41010;53.252;5.786;2022-11-15T07:39:35;150.55;;;48.17;;
55114;SDS011;41010;53.252;5.786;2022-11-15T07:42:02;147.40;;;47.72;;
55114;SDS011;41010;53.252;5.786;2022-11-15T07:44:47;137.65;;;47.50;;
55114;SDS011;41010;53.252;5.786;2022-11-15T07:47:15;143.13;;;49.28;;
55114;SDS011;41010;53.252;5.786;2022-11-15T07:49:43;146.70;;;46.38;;
55114;SDS011;41010;53.252;5.786;2022-11-15T07:52:11;138.88;;;48.92;;
55114;SDS011;41010;53.252;5.786;2022-11-15T07:54:38;127.03;;;46.00;;
55114;SDS011;41010;53.252;5.786;2022-11-15T07:57:05;130.57;;;45.83;;
55114;SDS011;41010;53.252;5.786;2022-11-15T07:59:34;130.05;;;47.97;;
55114;SDS011;41010;53.252;5.786;2022-11-15T08:02:01;115.90;;;45.08;;
55114;SDS011;41010;53.252;5.786;2022-11-15T08:04:30;117.30;;;43.40;;
55114;SDS011;41010;53.252;5.786;2022-11-15T08:06:58;114.63;;;43.63;;
55114;SDS011;41010;53.252;5.786;2022-11-15T08:09:25;99.68;;;42.55;;
55114;SDS011;41010;53.252;5.786;2022-11-15T08:11:52;107.32;;;42.65;;
55114;SDS011;41010;53.252;5.786;2022-11-15T08:14:19;117.95;;;44.40;;
55114;SDS011;41010;53.252;5.786;2022-11-15T08:16:47;107.97;;;41.60;;
55114;SDS011;41010;53.252;5.786;2022-11-15T08:19:14;103.85;;;41.85;;
55114;SDS011;41010;53.252;5.786;2022-11-15T08:21:43;105.50;;;43.17;;
55114;SDS011;41010;53.252;5.786;2022-11-15T08:24:10;101.65;;;41.20;;
55114;SDS011;41010;53.252;5.786;2022-11-15T08:26:37;93.07;;;41.03;;
55114;SDS011;41010;53.252;5.786;2022-11-15T08:29:05;109.68;;;42.47;;
55114;SDS011;41010;53.252;5.786;2022-11-15T08:31:33;119.45;;;43.67;;
55114;SDS011;41010;53.252;5.786;2022-11-15T08:34:02;92.82;;;41.58;;
55114;SDS011;41010;53.252;5.786;2022-11-15T08:36:29;100.40;;;40.03;;
55114;SDS011;41010;53.252;5.786;2022-11-15T08:38:58;97.72;;;39.70;;
55114;SDS011;41010;53.252;5.786;2022-11-15T08:41:25;79.47;;;38.53;;
55114;SDS011;41010;53.252;5.786;2022-11-15T08:43:53;92.53;;;39.30;;
55114;SDS011;41010;53.252;5.786;2022-11-15T08:46:20;90.88;;;39.13;;
55114;SDS011;41010;53.252;5.786;2022-11-15T08:48:48;74.43;;;37.90;;
55114;SDS011;41010;53.252;5.786;2022-11-15T08:51:15;78.93;;;38.67;;
55114;SDS011;41010;53.252;5.786;2022-11-15T08:53:42;75.30;;;35.92;;
55114;SDS011;41010;53.252;5.786;2022-11-15T08:56:12;76.45;;;36.00;;
55114;SDS011;41010;53.252;5.786;2022-11-15T08:58:39;74.43;;;37.33;;
55114;SDS011;41010;53.252;5.786;2022-11-15T09:01:13;75.43;;;35.35;;
55114;SDS011;41010;53.252;5.786;2022-11-15T09:03:41;68.72;;;34.58;;
55114;SDS011;41010;53.252;5.786;2022-11-15T09:06:08;74.55;;;35.20;;
55114;SDS011;41010;53.252;5.786;2022-11-15T09:08:36;65.70;;;34.40;;
55114;SDS011;41010;53.252;5.786;2022-11-15T09:11:04;56.15;;;32.67;;
55114;SDS011;41010;53.252;5.786;2022-11-15T09:13:33;60.20;;;31.88;;
55114;SDS011;41010;53.252;5.786;2022-11-15T09:16:02;60.97;;;32.03;;
55114;SDS011;41010;53.252;5.786;2022-11-15T09:18:30;52.22;;;30.17;;
55114;SDS011;41010;53.252;5.786;2022-11-15T09:20:58;57.55;;;31.17;;
55114;SDS011;41010;53.252;5.786;2022-11-15T09:23:27;57.67;;;31.20;;
55114;SDS011;41010;53.252;5.786;2022-11-15T09:25:57;48.35;;;29.48;;
55114;SDS011;41010;53.252;5.786;2022-11-15T09:28:25;57.08;;;30.10;;
55114;SDS011;41010;53.252;5.786;2022-11-15T09:30:56;54.45;;;29.95;;
55114;SDS011;41010;53.252;5.786;2022-11-15T09:33:24;57.78;;;30.42;;
55114;SDS011;41010;53.252;5.786;2022-11-15T09:35:52;52.47;;;29.67;;
55114;SDS011;41010;53.252;5.786;2022-11-15T09:38:19;53.92;;;28.23;;
55114;SDS011;41010;53.252;5.786;2022-11-15T09:40:47;48.45;;;27.70;;
55114;SDS011;41010;53.252;5.786;2022-11-15T09:43:25;43.25;;;25.80;;
55114;SDS011;41010;53.252;5.786;2022-11-15T09:46:08;46.92;;;27.00;;
55114;SDS011;41010;53.252;5.786;2022-11-15T09:48:48;49.90;;;27.27;;
55114;SDS011;41010;53.252;5.786;2022-11-15T09:51:18;43.40;;;24.27;;
55114;SDS011;41010;53.252;5.786;2022-11-15T09:53:48;45.13;;;24.15;;
55114;SDS011;41010;53.252;5.786;2022-11-15T09:56:16;43.72;;;24.23;;
55114;SDS011;41010;53.252;5.786;2022-11-15T09:58:47;48.85;;;25.05;;
55114;SDS011;41010;53.252;5.786;2022-11-15T10:01:20;40.25;;;25.38;;
55114;SDS011;41010;53.252;5.786;2022-11-15T10:03:52;42.85;;;24.65;;
55114;SDS011;41010;53.252;5.786;2022-11-15T10:06:25;43.47;;;24.65;;
55114;SDS011;41010;53.252;5.786;2022-11-15T10:08:54;40.60;;;24.05;;
55114;SDS011;41010;53.252;5.786;2022-11-15T10:11:25;40.80;;;26.02;;
55114;SDS011;41010;53.252;5.786;2022-11-15T10:13:53;42.70;;;26.05;;
55114;SDS011;41010;53.252;5.786;2022-11-15T10:16:42;49.97;;;26.17;;
55114;SDS011;41010;53.252;5.786;2022-11-15T10:19:13;47.50;;;27.75;;
55114;SDS011;41010;53.252;5.786;2022-11-15T10:21:48;42.35;;;26.70;;
55114;SDS011;41010;53.252;5.786;2022-11-15T10:24:18;48.22;;;26.50;;
55114;SDS011;41010;53.252;5.786;2022-11-15T10:26:46;41.85;;;25.75;;
55114;SDS011;41010;53.252;5.786;2022-11-15T10:29:17;42.60;;;25.45;;
55114;SDS011;41010;53.252;5.786;2022-11-15T10:31:46;42.25;;;22.65;;
55114;SDS011;41010;53.252;5.786;2022-11-15T10:34:14;42.97;;;24.15;;
55114;SDS011;41010;53.252;5.786;2022-11-15T10:36:44;41.97;;;22.08;;
55114;SDS011;41010;53.252;5.786;2022-11-15T10:39:12;40.58;;;23.25;;
55114;SDS011;41010;53.252;5.786;2022-11-15T10:41:40;39.05;;;22.48;;
55114;SDS011;41010;53.252;5.786;2022-11-15T10:44:21;35.20;;;22.15;;
55114;SDS011;41010;53.252;5.786;2022-11-15T10:49:33;32.17;;;19.90;;
55114;SDS011;41010;53.252;5.786;2022-11-15T10:52:01;36.55;;;19.23;;
55114;SDS011;41010;53.252;5.786;2022-11-15T10:54:30;32.60;;;19.15;;
55114;SDS011;41010;53.252;5.786;2022-11-15T10:56:58;32.00;;;17.58;;
55114;SDS011;41010;53.252;5.786;2022-11-15T10:59:26;25.08;;;16.48;;
55114;SDS011;41010;53.252;5.786;2022-11-15T11:01:55;31.10;;;16.88;;
55114;SDS011;41010;53.252;5.786;2022-11-15T11:04:22;29.90;;;16.48;;
55114;SDS011;41010;53.252;5.786;2022-11-15T11:06:52;31.10;;;16.85;;
55114;SDS011;41010;53.252;5.786;2022-11-15T11:09:23;24.85;;;15.57;;
55114;SDS011;41010;53.252;5.786;2022-11-15T11:11:54;27.83;;;16.00;;
55114;SDS011;41010;53.252;5.786;2022-11-15T11:14:22;30.13;;;15.77;;
55114;SDS011;41010;53.252;5.786;2022-11-15T11:16:52;25.75;;;16.48;;
55114;SDS011;41010;53.252;5.786;2022-11-15T11:19:32;29.70;;;15.13;;
55114;SDS011;41010;53.252;5.786;2022-11-15T11:22:14;23.92;;;13.70;;
55114;SDS011;41010;53.252;5.786;2022-11-15T11:24:44;27.98;;;13.75;;
55114;SDS011;41010;53.252;5.786;2022-11-15T11:27:17;21.33;;;12.75;;
55114;SDS011;41010;53.252;5.786;2022-11-15T11:29:49;23.02;;;12.82;;
55114;SDS011;41010;53.252;5.786;2022-11-15T11:32:25;19.15;;;12.18;;
55114;SDS011;41010;53.252;5.786;2022-11-15T11:34:58;23.45;;;12.65;;
55114;SDS011;41010;53.252;5.786;2022-11-15T11:39:59;23.10;;;12.93;;
55114;SDS011;41010;53.252;5.786;2022-11-15T11:42:31;20.67;;;12.93;;
55114;SDS011;41010;53.252;5.786;2022-11-15T11:45:03;23.30;;;11.57;;
55114;SDS011;41010;53.252;5.786;2022-11-15T11:47:38;23.45;;;12.05;;
55114;SDS011;41010;53.252;5.786;2022-11-15T11:50:10;22.67;;;11.77;;
55114;SDS011;41010;53.252;5.786;2022-11-15T11:52:38;20.02;;;11.70;;
55114;SDS011;41010;53.252;5.786;2022-11-15T11:55:14;15.93;;;9.32;;
55114;SDS011;41010;53.252;5.786;2022-11-15T11:57:43;22.35;;;10.75;;
55114;SDS011;41010;53.252;5.786;2022-11-15T12:00:15;17.35;;;10.18;;
55114;SDS011;41010;53.252;5.786;2022-11-15T12:02:43;24.10;;;10.52;;
55114;SDS011;41010;53.252;5.786;2022-11-15T12:05:13;19.30;;;9.07;;
55114;SDS011;41010;53.252;5.786;2022-11-15T12:07:43;17.23;;;9.23;;
55114;SDS011;41010;53.252;5.786;2022-11-15T12:10:17;13.95;;;9.57;;
55114;SDS011;41010;53.252;5.786;2022-11-15T12:12:49;14.23;;;9.13;;
55114;SDS011;41010;53.252;5.786;2022-11-15T12:15:18;18.75;;;9.02;;
55114;SDS011;41010;53.252;5.786;2022-11-15T12:17:46;20.13;;;9.65;;
55114;SDS011;41010;53.252;5.786;2022-11-15T12:20:15;14.70;;;8.80;;
55114;SDS011;41010;53.252;5.786;2022-11-15T12:22:44;16.00;;;8.88;;
55114;SDS011;41010;53.252;5.786;2022-11-15T12:25:16;15.38;;;9.32;;
55114;SDS011;41010;53.252;5.786;2022-11-15T12:27:46;16.80;;;9.40;;
55114;SDS011;41010;53.252;5.786;2022-11-15T12:30:17;19.33;;;9.77;;
55114;SDS011;41010;53.252;5.786;2022-11-15T12:32:49;17.45;;;9.05;;
55114;SDS011;41010;53.252;5.786;2022-11-15T12:35:21;17.92;;;9.02;;
55114;SDS011;41010;53.252;5.786;2022-11-15T12:37:50;13.48;;;7.78;;
55114;SDS011;41010;53.252;5.786;2022-11-15T12:40:25;17.42;;;8.73;;
55114;SDS011;41010;53.252;5.786;2022-11-15T12:42:59;17.33;;;8.57;;
55114;SDS011;41010;53.252;5.786;2022-11-15T12:45:28;13.98;;;8.38;;
55114;SDS011;41010;53.252;5.786;2022-11-15T12:48:20;13.75;;;7.47;;
55114;SDS011;41010;53.252;5.786;2022-11-15T12:50:55;12.95;;;6.78;;
55114;SDS011;41010;53.252;5.786;2022-11-15T12:53:26;11.65;;;4.90;;
55114;SDS011;41010;53.252;5.786;2022-11-15T12:56:09;12.23;;;5.07;;
55114;SDS011;41010;53.252;5.786;2022-11-15T12:58:45;8.63;;;3.30;;
55114;SDS011;41010;53.252;5.786;2022-11-15T13:04:21;5.82;;;3.10;;
55114;SDS011;41010;53.252;5.786;2022-11-15T13:06:49;6.07;;;2.30;;
55114;SDS011;41010;53.252;5.786;2022-11-15T13:12:06;8.27;;;2.22;;
55114;SDS011;41010;53.252;5.786;2022-11-15T13:14:44;4.82;;;2.22;;
55114;SDS011;41010;53.252;5.786;2022-11-15T13:17:26;4.60;;;2.40;;
55114;SDS011;41010;53.252;5.786;2022-11-15T13:19:55;6.50;;;2.60;;
55114;SDS011;41010;53.252;5.786;2022-11-15T13:22:25;5.20;;;2.28;;
55114;SDS011;41010;53.252;5.786;2022-11-15T13:25:16;6.65;;;2.20;;
55114;SDS011;41010;53.252;5.786;2022-11-15T13:27:46;4.15;;;2.35;;
55114;SDS011;41010;53.252;5.786;2022-11-15T13:30:15;7.22;;;2.35;;
55114;SDS011;41010;53.252;5.786;2022-11-15T13:32:45;9.35;;;2.50;;
55114;SDS011;41010;53.252;5.786;2022-11-15T13:35:17;5.68;;;2.35;;
55114;SDS011;41010;53.252;5.786;2022-11-15T13:37:45;8.70;;;2.67;;
55114;SDS011;41010;53.252;5.786;2022-11-15T13:40:18;5.45;;;2.55;;
55114;SDS011;41010;53.252;5.786;2022-11-15T13:42:48;5.68;;;2.30;;
55114;SDS011;41010;53.252;5.786;2022-11-15T13:45:16;5.20;;;2.05;;
55114;SDS011;41010;53.252;5.786;2022-11-15T13:47:43;8.52;;;2.35;;
55114;SDS011;41010;53.252;5.786;2022-11-15T13:50:11;4.35;;;2.30;;
55114;SDS011;41010;53.252;5.786;2022-11-15T13:52:39;8.30;;;2.20;;
55114;SDS011;41010;53.252;5.786;2022-11-15T13:55:10;4.18;;;1.90;;
55114;SDS011;41010;53.252;5.786;2022-11-15T13:57:40;5.97;;;2.17;;
55114;SDS011;41010;53.252;5.786;2022-11-15T14:00:24;4.10;;;2.10;;
55114;SDS011;41010;53.252;5.786;2022-11-15T14:02:52;5.43;;;2.53;;
55114;SDS011;41010;53.252;5.786;2022-11-15T14:05:21;4.85;;;2.53;;
55114;SDS011;41010;53.252;5.786;2022-11-15T14:07:55;5.75;;;2.53;;
55114;SDS011;41010;53.252;5.786;2022-11-15T14:10:27;6.03;;;2.90;;
55114;SDS011;41010;53.252;5.786;2022-11-15T14:12:55;8.68;;;3.85;;
55114;SDS011;41010;53.252;5.786;2022-11-15T14:15:28;5.18;;;2.92;;
55114;SDS011;41010;53.252;5.786;2022-11-15T14:17:55;7.82;;;3.25;;
55114;SDS011;41010;53.252;5.786;2022-11-15T14:20:27;6.72;;;2.50;;
55114;SDS011;41010;53.252;5.786;2022-11-15T14:22:56;5.97;;;2.65;;
55114;SDS011;41010;53.252;5.786;2022-11-15T14:25:24;5.78;;;2.83;;
55114;SDS011;41010;53.252;5.786;2022-11-15T14:28:09;5.43;;;2.50;;
55114;SDS011;41010;53.252;5.786;2022-11-15T14:30:39;4.50;;;2.58;;
55114;SDS011;41010;53.252;5.786;2022-11-15T14:33:17;4.97;;;2.70;;
55114;SDS011;41010;53.252;5.786;2022-11-15T14:35:44;5.00;;;2.80;;
55114;SDS011;41010;53.252;5.786;2022-11-15T14:38:11;4.55;;;2.58;;
55114;SDS011;41010;53.252;5.786;2022-11-15T14:40:41;10.38;;;3.22;;
55114;SDS011;41010;53.252;5.786;2022-11-15T14:43:09;4.18;;;2.13;;
55114;SDS011;41010;53.252;5.786;2022-11-15T14:45:37;7.45;;;2.78;;
55114;SDS011;41010;53.252;5.786;2022-11-15T14:48:08;6.20;;;2.63;;
55114;SDS011;41010;53.252;5.786;2022-11-15T14:50:36;5.78;;;2.20;;
55114;SDS011;41010;53.252;5.786;2022-11-15T14:53:04;7.00;;;2.33;;